createdAt,value
2024-02-19T00:00:09.396Z,1143.60
2024-02-19T00:01:09.581Z,1585.30
2024-02-19T00:02:09.369Z,1999.90
2024-02-19T00:03:09.375Z,844.60
2024-02-19T00:04:09.436Z,1999.90
2024-02-19T00:05:09.496Z,1999.90
2024-02-19T00:06:09.328Z,1999.90
2024-02-19T00:07:09.394Z,1999.90
2024-02-19T00:08:09.410Z,1999.90
2024-02-19T00:09:09.295Z,947.00
2024-02-19T00:10:09.367Z,1999.90
2024-02-19T00:11:09.304Z,1999.90
2024-02-19T00:12:09.281Z,1999.90
2024-02-19T00:13:09.283Z,1999.90
2024-02-19T00:14:09.248Z,1999.90
2024-02-19T00:15:09.231Z,1999.90
2024-02-19T00:16:09.259Z,1853.00
2024-02-19T00:17:09.265Z,1999.90
2024-02-19T00:18:09.298Z,1059.20
2024-02-19T00:19:09.244Z,899.20
2024-02-19T00:20:09.173Z,1999.90
2024-02-19T00:21:09.162Z,1999.90
2024-02-19T00:22:09.170Z,1999.90
2024-02-19T00:23:09.140Z,1999.90
2024-02-19T00:24:09.133Z,1999.90
2024-02-19T00:25:09.141Z,1999.90
2024-02-19T00:26:09.124Z,1999.90
2024-02-19T00:27:09.111Z,1999.90
2024-02-19T00:28:09.124Z,1999.90
2024-02-19T00:29:09.072Z,1999.90
2024-02-19T00:30:09.062Z,1999.90
2024-02-19T00:31:09.094Z,1999.90
2024-02-19T00:32:09.043Z,1999.90
2024-02-19T00:33:09.091Z,1999.90
2024-02-19T00:34:09.207Z,1999.90
2024-02-19T00:35:09.001Z,1999.90
2024-02-19T00:36:08.994Z,1999.90
2024-02-19T00:37:09.032Z,1822.40
2024-02-19T00:38:08.976Z,1999.90
2024-02-19T00:39:08.967Z,1999.90
2024-02-19T00:40:09.004Z,1999.90
2024-02-19T00:41:08.933Z,1999.90
2024-02-19T00:42:08.949Z,1999.90
2024-02-19T00:43:08.972Z,1999.90
2024-02-19T00:44:08.909Z,1999.90
2024-02-19T00:45:08.899Z,1999.90
2024-02-19T00:46:08.910Z,1512.50
2024-02-19T00:47:08.871Z,1999.90
2024-02-19T00:48:08.938Z,1999.90
2024-02-19T00:49:09.012Z,1999.90
2024-02-19T00:50:08.891Z,1999.90
2024-02-19T00:51:08.824Z,1999.90
2024-02-19T00:52:08.863Z,1999.90
2024-02-19T00:53:08.803Z,1999.90
2024-02-19T00:54:08.806Z,1999.90
2024-02-19T00:55:09.026Z,1999.90
2024-02-19T00:56:08.767Z,1999.90
2024-02-19T00:57:08.806Z,1999.90
2024-02-19T00:58:08.826Z,1999.90
2024-02-19T00:59:08.737Z,1999.90
2024-02-19T01:00:08.737Z,1999.90
2024-02-19T01:01:08.832Z,1999.90
2024-02-19T01:02:08.788Z,1999.90
2024-02-19T01:03:08.694Z,1999.90
2024-02-19T01:04:08.781Z,1421.00
2024-02-19T01:05:08.704Z,276.50
2024-02-19T01:06:08.740Z,1999.90
2024-02-19T01:07:08.778Z,1999.90
2024-02-19T01:08:08.642Z,1999.90
2024-02-19T01:09:08.631Z,1999.90
2024-02-19T01:10:08.673Z,1195.10
2024-02-19T01:11:08.657Z,1999.90
2024-02-19T01:12:08.593Z,941.10
2024-02-19T01:13:08.663Z,1999.90
2024-02-19T01:14:08.597Z,1999.90
2024-02-19T01:15:08.575Z,1999.90
2024-02-19T01:16:08.601Z,1999.90
2024-02-19T01:17:08.545Z,1999.90
2024-02-19T01:18:08.564Z,1999.90
2024-02-19T01:19:08.646Z,1115.70
2024-02-19T01:20:08.504Z,1234.50
2024-02-19T01:21:08.499Z,562.20
2024-02-19T01:22:08.550Z,294.10
2024-02-19T01:23:08.509Z,406.00
2024-02-19T01:24:08.465Z,182.50
2024-02-19T01:25:08.489Z,219.50
2024-02-19T01:26:08.435Z,242.00
2024-02-19T01:27:08.439Z,210.20
2024-02-19T01:28:08.495Z,556.50
2024-02-19T01:29:08.428Z,250.50
2024-02-19T01:30:08.417Z,13.30
2024-02-19T01:31:08.443Z,813.30
2024-02-19T01:32:08.387Z,80.30
2024-02-19T01:33:08.393Z,688.30
2024-02-19T01:34:08.433Z,245.30
2024-02-19T01:35:08.489Z,157.90
2024-02-19T01:36:08.331Z,187.20
2024-02-19T01:37:08.462Z,461.70
2024-02-19T01:38:08.303Z,314.10
2024-02-19T01:39:08.317Z,258.50
2024-02-19T01:40:08.279Z,157.20
2024-02-19T01:41:08.271Z,301.60
2024-02-19T01:42:08.261Z,610.80
2024-02-19T01:43:08.353Z,158.90
2024-02-19T01:44:08.235Z,52.40
2024-02-19T01:45:08.410Z,757.50
2024-02-19T01:46:08.277Z,933.30
2024-02-19T01:47:08.205Z,507.00
2024-02-19T01:48:08.284Z,163.60
2024-02-19T01:49:08.209Z,509.40
2024-02-19T01:50:08.181Z,65.90
2024-02-19T01:51:08.163Z,582.60
2024-02-19T01:52:08.270Z,884.00
2024-02-19T01:53:08.166Z,402.60
2024-02-19T01:54:08.180Z,1907.60
2024-02-19T01:55:08.152Z,608.20
2024-02-19T01:56:08.117Z,308.10
2024-02-19T01:57:08.093Z,1062.90
2024-02-19T01:58:08.333Z,231.60
2024-02-19T01:59:08.070Z,459.90
2024-02-19T02:00:08.087Z,885.40
2024-02-19T02:01:08.172Z,593.80
2024-02-19T02:02:08.058Z,73.70
2024-02-19T02:03:08.073Z,321.00
2024-02-19T02:04:08.057Z,1033.30
2024-02-19T02:05:08.016Z,95.20
2024-02-19T02:06:08.046Z,639.30
2024-02-19T02:07:08.052Z,142.30
2024-02-19T02:08:07.969Z,14.10
2024-02-19T02:09:07.961Z,14.50
2024-02-19T02:10:08.026Z,530.40
2024-02-19T02:11:07.948Z,333.50
2024-02-19T02:12:07.931Z,757.00
2024-02-19T02:13:07.944Z,238.20
2024-02-19T02:14:07.904Z,746.30
2024-02-19T02:15:07.886Z,729.50
2024-02-19T02:16:07.918Z,228.70
2024-02-19T02:17:07.869Z,579.80
2024-02-19T02:18:08.005Z,1299.10
2024-02-19T02:19:07.941Z,704.20
2024-02-19T02:20:07.930Z,653.10
2024-02-19T02:21:07.838Z,842.40
2024-02-19T02:22:07.864Z,260.00
2024-02-19T02:23:07.801Z,535.30
2024-02-19T02:24:07.796Z,247.00
2024-02-19T02:25:07.806Z,684.70
2024-02-19T02:26:07.775Z,244.80
2024-02-19T02:27:07.771Z,584.70
2024-02-19T02:28:07.794Z,479.30
2024-02-19T02:29:07.744Z,818.10
2024-02-19T02:30:07.722Z,283.50
2024-02-19T02:31:07.746Z,426.50
2024-02-19T02:32:07.722Z,157.00
2024-02-19T02:33:07.752Z,201.00
2024-02-19T02:34:08.001Z,737.40
2024-02-19T02:35:07.739Z,350.30
2024-02-19T02:36:07.664Z,51.40
2024-02-19T02:37:07.665Z,366.60
2024-02-19T02:38:07.644Z,770.80
2024-02-19T02:39:07.621Z,759.80
2024-02-19T02:40:07.671Z,13.80
2024-02-19T02:41:07.607Z,89.60
2024-02-19T02:42:07.588Z,272.10
2024-02-19T02:43:07.636Z,97.20
2024-02-19T02:44:07.565Z,149.10
2024-02-19T02:45:07.561Z,817.40
2024-02-19T02:46:07.577Z,14.20
2024-02-19T02:47:07.541Z,83.30
2024-02-19T02:48:07.591Z,760.10
2024-02-19T02:49:07.686Z,681.90
2024-02-19T02:50:07.639Z,1066.30
2024-02-19T02:51:07.499Z,347.60
2024-02-19T02:52:07.592Z,11.40
2024-02-19T02:53:07.475Z,412.00
2024-02-19T02:54:07.467Z,624.90
2024-02-19T02:55:07.477Z,444.40
2024-02-19T02:56:07.435Z,139.30
2024-02-19T02:57:07.433Z,11.40
2024-02-19T02:58:07.451Z,38.50
2024-02-19T02:59:07.453Z,15.40
2024-02-19T03:00:07.393Z,53.80
2024-02-19T03:01:07.446Z,209.90
2024-02-19T03:02:07.401Z,11.50
2024-02-19T03:03:07.356Z,12.10
2024-02-19T03:04:07.426Z,453.30
2024-02-19T03:05:07.449Z,14.20
2024-02-19T03:06:07.349Z,9.50
2024-02-19T03:07:07.390Z,155.80
2024-02-19T03:08:07.358Z,19.40
2024-02-19T03:09:07.349Z,416.20
2024-02-19T03:10:07.305Z,582.10
2024-02-19T03:11:07.304Z,95.10
2024-02-19T03:12:07.262Z,12.90
2024-02-19T03:13:07.297Z,185.90
2024-02-19T03:14:07.235Z,90.00
2024-02-19T03:15:07.225Z,11.50
2024-02-19T03:16:07.228Z,248.00
2024-02-19T03:17:07.204Z,11.10
2024-02-19T03:18:07.402Z,180.30
2024-02-19T03:19:07.244Z,191.30
2024-02-19T03:20:07.176Z,568.00
2024-02-19T03:21:07.175Z,451.00
2024-02-19T03:22:07.183Z,137.70
2024-02-19T03:23:07.138Z,341.80
2024-02-19T03:24:07.120Z,1005.50
2024-02-19T03:25:07.136Z,77.30
2024-02-19T03:26:07.115Z,10.90
2024-02-19T03:27:07.100Z,11.20
2024-02-19T03:28:07.151Z,172.70
2024-02-19T03:29:07.080Z,5.00
2024-02-19T03:30:07.064Z,8.50
2024-02-19T03:31:07.071Z,59.00
2024-02-19T03:32:07.045Z,6.60
2024-02-19T03:33:07.100Z,72.20
2024-02-19T03:34:07.087Z,10.80
2024-02-19T03:35:07.050Z,9.80
2024-02-19T03:36:06.996Z,36.30
2024-02-19T03:37:07.014Z,5.70
2024-02-19T03:38:07.006Z,9.10
2024-02-19T03:39:06.959Z,244.70
2024-02-19T03:40:06.985Z,544.00
2024-02-19T03:41:06.930Z,177.40
2024-02-19T03:42:06.986Z,115.00
2024-02-19T03:43:07.004Z,68.00
2024-02-19T03:44:06.904Z,223.30
2024-02-19T03:45:06.889Z,117.10
2024-02-19T03:46:06.949Z,11.30
2024-02-19T03:47:06.866Z,10.10
2024-02-19T03:48:07.018Z,7.60
2024-02-19T03:49:06.904Z,85.60
2024-02-19T03:50:06.847Z,105.80
2024-02-19T03:51:06.823Z,8.10
2024-02-19T03:52:06.836Z,8.90
2024-02-19T03:53:06.802Z,91.80
2024-02-19T03:54:06.868Z,117.40
2024-02-19T03:55:06.799Z,382.00
2024-02-19T03:56:06.769Z,99.00
2024-02-19T03:57:06.754Z,14.10
2024-02-19T03:58:06.805Z,9.70
2024-02-19T03:59:06.738Z,45.10
2024-02-19T04:00:06.721Z,7.10
2024-02-19T04:01:08.611Z,162.70
2024-02-19T04:02:06.759Z,359.50
2024-02-19T04:03:06.696Z,55.80
2024-02-19T04:04:06.775Z,7.30
2024-02-19T04:05:06.789Z,216.20
2024-02-19T04:06:06.732Z,8.10
2024-02-19T04:07:06.755Z,10.30
2024-02-19T04:08:09.769Z,12.50
2024-02-19T04:09:06.619Z,597.20
2024-02-19T04:10:06.756Z,10.80
2024-02-19T04:11:06.597Z,13.50
2024-02-19T04:12:06.594Z,164.80
2024-02-19T04:13:06.632Z,11.80
2024-02-19T04:14:06.569Z,86.10
2024-02-19T04:15:06.552Z,9.10
2024-02-19T04:16:06.565Z,119.60
2024-02-19T04:17:07.095Z,187.20
2024-02-19T04:18:06.630Z,114.40
2024-02-19T04:19:06.642Z,7.10
2024-02-19T04:20:06.506Z,5.30
2024-02-19T04:21:06.502Z,60.10
2024-02-19T04:22:06.503Z,71.60
2024-02-19T04:23:06.466Z,3.70
2024-02-19T04:24:06.458Z,6.10
2024-02-19T04:25:06.587Z,5.10
2024-02-19T04:26:06.456Z,7.80
2024-02-19T04:27:06.420Z,3.40
2024-02-19T04:28:06.489Z,130.30
2024-02-19T04:29:06.412Z,72.50
2024-02-19T04:31:06.423Z,4.60
2024-02-19T04:32:06.370Z,4.80
2024-02-19T04:33:06.794Z,6.20
2024-02-19T04:34:06.494Z,324.20
2024-02-19T04:35:06.386Z,183.20
2024-02-19T04:36:06.338Z,127.50
2024-02-19T04:37:06.337Z,9.70
2024-02-19T04:38:06.357Z,6.90
2024-02-19T04:39:06.284Z,101.90
2024-02-19T04:40:06.342Z,173.40
2024-02-19T04:41:06.265Z,128.60
2024-02-19T04:42:06.279Z,202.20
2024-02-19T04:43:06.262Z,9.30
2024-02-19T04:44:06.230Z,304.00
2024-02-19T04:45:06.221Z,143.40
2024-02-19T04:46:06.296Z,266.40
2024-02-19T04:47:06.197Z,6.30
2024-02-19T04:48:06.270Z,11.40
2024-02-19T04:49:06.256Z,5.50
2024-02-19T04:50:06.259Z,4.90
2024-02-19T04:51:06.150Z,91.00
2024-02-19T04:52:06.290Z,5.90
2024-02-19T04:53:06.145Z,5.20
2024-02-19T04:54:06.123Z,7.30
2024-02-19T04:55:06.212Z,6.40
2024-02-19T04:56:06.115Z,8.20
2024-02-19T04:57:06.103Z,7.30
2024-02-19T04:58:06.175Z,38.80
2024-02-19T04:59:06.068Z,7.80
2024-02-19T05:00:06.069Z,9.30
2024-02-19T05:01:06.160Z,7.80
2024-02-19T05:02:06.315Z,133.90
2024-02-19T05:03:06.017Z,319.20
2024-02-19T05:04:06.063Z,14.20
2024-02-19T05:05:06.058Z,117.80
2024-02-19T05:06:06.016Z,170.20
2024-02-19T05:07:06.022Z,150.10
2024-02-19T05:08:05.996Z,9.70
2024-02-19T05:09:05.955Z,8.90
2024-02-19T05:10:05.964Z,9.80
2024-02-19T05:11:06.033Z,11.60
2024-02-19T05:12:05.919Z,119.70
2024-02-19T05:13:05.947Z,13.30
2024-02-19T05:14:05.918Z,49.50
2024-02-19T05:15:05.894Z,13.50
2024-02-19T05:16:05.908Z,10.40
2024-02-19T05:17:05.861Z,8.50
2024-02-19T05:18:05.974Z,507.00
2024-02-19T05:19:05.926Z,85.10
2024-02-19T05:20:05.844Z,11.10
2024-02-19T05:21:05.827Z,11.00
2024-02-19T05:22:05.869Z,7.50
2024-02-19T05:23:05.800Z,141.80
2024-02-19T05:24:05.783Z,9.90
2024-02-19T05:25:05.776Z,11.30
2024-02-19T05:26:09.452Z,65.70
2024-02-19T05:27:05.777Z,11.30
2024-02-19T05:28:05.784Z,14.40
2024-02-19T05:29:05.737Z,11.20
2024-02-19T05:30:05.755Z,10.50
2024-02-19T05:31:05.798Z,11.30
2024-02-19T05:32:05.709Z,30.90
2024-02-19T05:33:05.999Z,10.30
2024-02-19T05:34:05.787Z,7.90
2024-02-19T05:35:05.779Z,7.50
2024-02-19T05:36:05.647Z,11.90
2024-02-19T05:37:05.695Z,10.20
2024-02-19T05:38:05.628Z,12.30
2024-02-19T05:39:05.612Z,16.80
2024-02-19T05:40:05.619Z,10.10
2024-02-19T05:41:05.591Z,127.60
2024-02-19T05:42:05.586Z,11.10
2024-02-19T05:43:05.629Z,10.60
2024-02-19T05:44:05.565Z,12.30
2024-02-19T05:45:05.547Z,12.50
2024-02-19T05:46:05.614Z,10.60
2024-02-19T05:47:05.530Z,12.20
2024-02-19T05:48:05.616Z,14.80
2024-02-19T05:49:05.565Z,11.90
2024-02-19T05:50:05.613Z,13.70
2024-02-19T05:51:05.477Z,38.50
2024-02-19T05:52:05.538Z,16.50
2024-02-19T05:53:05.470Z,16.00
2024-02-19T05:54:05.456Z,25.80
2024-02-19T05:55:05.486Z,17.00
2024-02-19T05:56:05.420Z,16.20
2024-02-19T05:57:05.416Z,21.90
2024-02-19T05:58:05.443Z,22.80
2024-02-19T05:59:05.617Z,141.00
2024-02-19T06:00:05.391Z,28.10
2024-02-19T06:01:05.506Z,24.20
2024-02-19T06:02:05.651Z,35.60
2024-02-19T06:03:05.342Z,27.40
2024-02-19T06:04:05.346Z,26.50
2024-02-19T06:05:07.305Z,26.70
2024-02-19T06:06:05.471Z,28.80
2024-02-19T06:07:05.408Z,27.90
2024-02-19T06:08:05.285Z,22.90
2024-02-19T06:09:05.290Z,22.50
2024-02-19T06:10:05.299Z,24.50
2024-02-19T06:11:05.286Z,26.80
2024-02-19T06:12:05.248Z,20.40
2024-02-19T06:13:05.292Z,29.70
2024-02-19T06:14:05.226Z,43.00
2024-02-19T06:15:05.208Z,32.80
2024-02-19T06:16:05.335Z,26.50
2024-02-19T06:17:05.217Z,17.10
2024-02-19T06:18:05.321Z,19.90
2024-02-19T06:19:05.273Z,27.00
2024-02-19T06:20:05.226Z,17.60
2024-02-19T06:21:05.154Z,19.50
2024-02-19T06:22:05.137Z,17.90
2024-02-19T06:23:05.116Z,14.20
2024-02-19T06:24:05.103Z,153.40
2024-02-19T06:25:05.190Z,18.00
2024-02-19T06:26:05.098Z,22.60
2024-02-19T06:27:05.082Z,19.40
2024-02-19T06:28:05.113Z,21.10
2024-02-19T06:29:05.089Z,373.00
2024-02-19T06:30:05.068Z,18.10
2024-02-19T06:31:05.088Z,95.90
2024-02-19T06:32:05.025Z,163.50
2024-02-19T06:33:05.046Z,282.20
2024-02-19T06:34:05.349Z,21.80
2024-02-19T06:35:05.078Z,20.40
2024-02-19T06:36:04.965Z,417.30
2024-02-19T06:37:05.039Z,116.80
2024-02-19T06:38:04.942Z,20.40
2024-02-19T06:39:04.947Z,21.20
2024-02-19T06:40:04.998Z,27.80
2024-02-19T06:41:04.906Z,19.90
2024-02-19T06:42:04.897Z,20.80
2024-02-19T06:43:04.992Z,69.40
2024-02-19T06:44:04.877Z,48.10
2024-02-19T06:45:04.872Z,20.50
2024-02-19T06:46:04.929Z,25.60
2024-02-19T06:47:04.887Z,27.00
2024-02-19T06:48:05.250Z,22.80
2024-02-19T06:49:04.895Z,93.50
2024-02-19T06:50:04.959Z,23.00
2024-02-19T06:51:04.815Z,104.40
2024-02-19T06:52:04.840Z,31.80
2024-02-19T06:53:04.779Z,25.70
2024-02-19T06:54:04.779Z,23.20
2024-02-19T06:55:04.802Z,23.70
2024-02-19T06:56:04.942Z,19.70
2024-02-19T06:57:04.741Z,22.40
2024-02-19T06:58:04.774Z,28.90
2024-02-19T06:59:04.716Z,22.20
2024-02-19T07:00:04.705Z,20.90
2024-02-19T07:01:04.802Z,24.70
2024-02-19T07:02:08.075Z,25.20
2024-02-19T07:03:04.732Z,30.80
2024-02-19T07:04:04.739Z,168.10
2024-02-19T07:05:04.951Z,25.80
2024-02-19T07:06:04.670Z,21.00
2024-02-19T07:07:04.672Z,124.10
2024-02-19T07:08:04.633Z,450.00
2024-02-19T07:09:04.603Z,25.00
2024-02-19T07:10:04.911Z,25.80
2024-02-19T07:11:04.902Z,18.10
2024-02-19T07:12:04.551Z,21.00
2024-02-19T07:13:04.616Z,24.30
2024-02-19T07:14:04.568Z,73.10
2024-02-19T07:15:04.556Z,22.80
2024-02-19T07:16:04.553Z,19.90
2024-02-19T07:17:04.499Z,144.90
2024-02-19T07:18:04.583Z,23.50
2024-02-19T07:19:04.585Z,23.00
2024-02-19T07:20:04.550Z,19.90
2024-02-19T07:21:04.454Z,85.60
2024-02-19T07:22:04.677Z,19.50
2024-02-19T07:23:04.445Z,22.80
2024-02-19T07:24:04.428Z,20.30
2024-02-19T07:25:13.432Z,23.40
2024-02-19T07:26:05.495Z,103.10
2024-02-19T07:27:04.382Z,56.50
2024-02-19T07:28:04.409Z,27.40
2024-02-19T07:29:04.367Z,26.60
2024-02-19T07:30:04.360Z,22.50
2024-02-19T07:31:04.402Z,24.50
2024-02-19T07:32:04.331Z,27.00
2024-02-19T07:33:04.501Z,20.70
2024-02-19T07:34:04.501Z,23.00
2024-02-19T07:35:04.328Z,25.40
2024-02-19T07:36:04.305Z,25.30
2024-02-19T07:37:04.336Z,28.00
2024-02-19T07:38:04.293Z,25.20
2024-02-19T07:39:04.258Z,99.70
2024-02-19T07:40:04.317Z,171.80
2024-02-19T07:41:04.224Z,20.60
2024-02-19T07:42:04.214Z,22.90
2024-02-19T07:43:04.290Z,25.50
2024-02-19T07:44:04.205Z,50.80
2024-02-19T07:45:04.202Z,119.10
2024-02-19T07:46:04.274Z,255.70
2024-02-19T07:47:04.152Z,21.90
2024-02-19T07:48:04.238Z,26.80
2024-02-19T07:49:04.221Z,35.60
2024-02-19T07:50:04.211Z,332.20
2024-02-19T07:51:04.115Z,25.00
2024-02-19T07:52:04.240Z,177.50
2024-02-19T07:53:04.087Z,24.70
2024-02-19T07:54:04.107Z,27.30
2024-02-19T07:55:04.133Z,25.00
2024-02-19T07:56:04.049Z,22.40
2024-02-19T07:57:04.041Z,532.00
2024-02-19T07:58:04.059Z,17.10
2024-02-19T07:59:04.031Z,17.20
2024-02-19T08:00:04.014Z,16.10
2024-02-19T08:01:04.968Z,38.70
2024-02-19T08:02:04.271Z,24.70
2024-02-19T08:03:03.982Z,24.30
2024-02-19T08:04:04.299Z,25.90
2024-02-19T08:05:04.479Z,29.80
2024-02-19T08:06:04.015Z,21.80
2024-02-19T08:07:04.059Z,23.30
2024-02-19T08:08:03.939Z,21.70
2024-02-19T08:09:03.916Z,22.30
2024-02-19T08:10:04.091Z,24.90
2024-02-19T08:11:03.882Z,21.70
2024-02-19T08:12:04.070Z,584.80
2024-02-19T08:13:04.080Z,20.70
2024-02-19T08:14:04.035Z,26.70
2024-02-19T08:15:03.857Z,27.80
2024-02-19T08:16:03.954Z,15.60
2024-02-19T08:17:03.821Z,25.40
2024-02-19T08:18:03.925Z,19.50
2024-02-19T08:19:04.032Z,66.20
2024-02-19T08:20:03.920Z,25.10
2024-02-19T08:21:03.772Z,17.40
2024-02-19T08:22:03.813Z,21.10
2024-02-19T08:23:03.754Z,16.40
2024-02-19T08:24:03.756Z,106.80
2024-02-19T08:25:03.777Z,20.20
2024-02-19T08:26:03.762Z,24.20
2024-02-19T08:27:03.703Z,102.30
2024-02-19T08:28:03.712Z,23.30
2024-02-19T08:29:03.678Z,14.30
2024-02-19T08:30:03.672Z,16.20
2024-02-19T08:31:03.701Z,43.80
2024-02-19T08:32:03.654Z,19.30
2024-02-19T08:33:03.708Z,12.10
2024-02-19T08:34:03.708Z,17.30
2024-02-19T08:35:03.759Z,19.80
2024-02-19T08:36:03.623Z,15.20
2024-02-19T08:37:03.661Z,21.10
2024-02-19T08:38:03.598Z,16.50
2024-02-19T08:39:03.587Z,20.20
2024-02-19T08:40:03.617Z,18.30
2024-02-19T08:41:03.559Z,18.70
2024-02-19T08:42:03.609Z,19.90
2024-02-19T08:43:03.692Z,14.90
2024-02-19T08:44:03.533Z,20.40
2024-02-19T08:45:03.520Z,19.00
2024-02-19T08:46:03.553Z,11.00
2024-02-19T08:47:03.508Z,15.20
2024-02-19T08:48:03.498Z,16.70
2024-02-19T08:49:03.626Z,22.40
2024-02-19T08:50:03.590Z,15.40
2024-02-19T08:51:03.449Z,16.60
2024-02-19T08:52:03.458Z,17.90
2024-02-19T08:53:03.406Z,21.60
2024-02-19T08:54:03.399Z,20.80
2024-02-19T08:55:03.505Z,20.20
2024-02-19T08:56:03.394Z,171.00
2024-02-19T08:57:03.360Z,148.30
2024-02-19T08:58:03.447Z,273.00
2024-02-19T08:59:03.345Z,17.70
2024-02-19T09:00:03.335Z,15.80
2024-02-19T09:01:03.497Z,58.90
2024-02-19T09:02:03.481Z,18.00
2024-02-19T09:03:03.292Z,17.20
2024-02-19T09:04:03.363Z,475.60
2024-02-19T09:05:03.314Z,285.40
2024-02-19T09:06:03.358Z,19.20
2024-02-19T09:07:03.420Z,21.20
2024-02-19T09:08:03.238Z,18.60
2024-02-19T09:09:03.229Z,21.80
2024-02-19T09:10:03.271Z,19.90
2024-02-19T09:11:03.229Z,22.60
2024-02-19T09:12:03.202Z,23.60
2024-02-19T09:13:03.234Z,20.20
2024-02-19T09:14:03.197Z,94.40
2024-02-19T09:15:03.164Z,16.90
2024-02-19T09:16:03.238Z,23.00
2024-02-19T09:17:03.143Z,20.20
2024-02-19T09:18:03.232Z,73.60
2024-02-19T09:19:03.242Z,19.50
2024-02-19T09:20:03.262Z,218.60
2024-02-19T09:21:03.111Z,19.10
2024-02-19T09:22:03.170Z,22.00
2024-02-19T09:23:03.089Z,23.90
2024-02-19T09:24:03.133Z,132.10
2024-02-19T09:25:03.111Z,111.30
2024-02-19T09:26:03.045Z,18.00
2024-02-19T09:27:03.026Z,111.50
2024-02-19T09:28:03.077Z,104.60
2024-02-19T09:29:03.017Z,106.80
2024-02-19T09:30:03.015Z,21.70
2024-02-19T09:31:03.043Z,17.90
2024-02-19T09:32:02.989Z,188.30
2024-02-19T09:33:03.085Z,18.10
2024-02-19T09:34:03.132Z,17.40
2024-02-19T09:35:03.086Z,25.00
2024-02-19T09:36:02.946Z,22.40
2024-02-19T09:37:02.952Z,20.50
2024-02-19T09:38:02.914Z,21.60
2024-02-19T09:39:02.905Z,16.90
2024-02-19T09:40:02.986Z,19.40
2024-02-19T09:41:02.880Z,22.80
2024-02-19T09:42:02.860Z,24.10
2024-02-19T09:43:02.943Z,21.70
2024-02-19T09:44:02.843Z,18.20
2024-02-19T09:45:02.856Z,251.00
2024-02-19T09:46:02.895Z,516.00
2024-02-19T09:47:02.810Z,88.30
2024-02-19T09:48:03.006Z,366.40
2024-02-19T09:49:03.100Z,233.20
2024-02-19T09:50:02.951Z,51.80
2024-02-19T09:51:02.769Z,19.10
2024-02-19T09:52:02.849Z,23.20
2024-02-19T09:53:02.761Z,20.50
2024-02-19T09:54:02.881Z,23.70
2024-02-19T09:55:02.793Z,17.60
2024-02-19T09:56:02.709Z,20.30
2024-02-19T09:57:02.702Z,86.10
2024-02-19T09:58:02.752Z,28.10
2024-02-19T09:59:02.680Z,23.00
2024-02-19T10:00:02.773Z,28.70
2024-02-19T10:01:02.787Z,14.70
2024-02-19T10:02:02.882Z,20.80
2024-02-19T10:03:02.629Z,23.10
2024-02-19T10:04:02.974Z,174.60
2024-02-19T10:05:02.868Z,25.70
2024-02-19T10:06:02.969Z,25.90
2024-02-19T10:07:02.864Z,23.10
2024-02-19T10:08:02.629Z,19.40
2024-02-19T10:09:02.570Z,20.90
2024-02-19T10:10:02.643Z,18.70
2024-02-19T10:11:02.537Z,18.30
2024-02-19T10:12:02.528Z,22.70
2024-02-19T10:13:02.687Z,19.10
2024-02-19T10:14:02.507Z,17.80
2024-02-19T10:15:02.508Z,107.40
2024-02-19T10:16:04.705Z,17.30
2024-02-19T10:17:02.486Z,18.70
2024-02-19T10:18:02.558Z,114.30
2024-02-19T10:19:02.627Z,80.20
2024-02-19T10:20:02.440Z,18.40
2024-02-19T10:21:02.434Z,277.10
2024-02-19T10:22:02.492Z,23.40
2024-02-19T10:23:02.437Z,20.30
2024-02-19T10:24:02.481Z,17.70
2024-02-19T10:25:02.532Z,22.20
2024-02-19T10:26:02.383Z,23.90
2024-02-19T10:27:02.367Z,19.30
2024-02-19T10:28:02.401Z,15.90
2024-02-19T10:29:02.368Z,19.40
2024-02-19T10:30:02.355Z,15.40
2024-02-19T10:31:02.550Z,18.60
2024-02-19T10:32:02.307Z,16.30
2024-02-19T10:33:02.356Z,23.30
2024-02-19T10:34:02.538Z,18.90
2024-02-19T10:35:02.392Z,149.50
2024-02-19T10:36:02.262Z,18.80
2024-02-19T10:37:02.329Z,21.50
2024-02-19T10:38:02.238Z,18.20
2024-02-19T10:39:02.223Z,18.50
2024-02-19T10:40:02.322Z,16.00
2024-02-19T10:41:02.261Z,157.00
2024-02-19T10:42:02.229Z,137.20
2024-02-19T10:43:02.359Z,13.00
2024-02-19T10:44:02.192Z,35.90
2024-02-19T10:45:02.196Z,17.40
2024-02-19T10:46:02.212Z,15.30
2024-02-19T10:47:02.138Z,18.00
2024-02-19T10:48:02.205Z,21.10
2024-02-19T10:49:02.330Z,20.70
2024-02-19T10:50:02.224Z,17.50
2024-02-19T10:51:02.103Z,16.60
2024-02-19T10:52:02.129Z,17.00
2024-02-19T10:53:02.070Z,49.40
2024-02-19T10:54:02.052Z,18.20
2024-02-19T10:55:09.979Z,15.60
2024-02-19T10:56:05.163Z,17.60
2024-02-19T10:57:02.045Z,14.60
2024-02-19T10:58:02.084Z,16.80
2024-02-19T10:59:02.010Z,13.90
2024-02-19T11:00:02.063Z,14.10
2024-02-19T11:01:02.208Z,14.90
2024-02-19T11:02:02.133Z,88.70
2024-02-19T11:03:01.995Z,102.80
2024-02-19T11:04:02.021Z,59.20
2024-02-19T11:05:02.002Z,13.70
2024-02-19T11:06:02.055Z,15.50
2024-02-19T11:07:01.986Z,15.90
2024-02-19T11:08:01.894Z,13.10
2024-02-19T11:09:01.890Z,18.20
2024-02-19T11:10:02.009Z,15.70
2024-02-19T11:11:01.973Z,17.20
2024-02-19T11:12:02.012Z,310.60
2024-02-19T11:13:02.053Z,16.20
2024-02-19T11:14:01.863Z,16.40
2024-02-19T11:15:01.843Z,11.60
2024-02-19T11:16:01.851Z,17.50
2024-02-19T11:17:01.838Z,13.90
2024-02-19T11:18:01.886Z,15.20
2024-02-19T11:19:01.846Z,136.70
2024-02-19T11:20:01.846Z,18.50
2024-02-19T11:21:01.769Z,16.30
2024-02-19T11:22:01.811Z,13.20
2024-02-19T11:23:01.731Z,16.80
2024-02-19T11:24:01.726Z,14.60
2024-02-19T11:25:01.746Z,20.10
2024-02-19T11:26:01.705Z,19.40
2024-02-19T11:27:01.688Z,157.10
2024-02-19T11:28:01.714Z,12.30
2024-02-19T11:29:01.687Z,14.60
2024-02-19T11:30:01.709Z,14.90
2024-02-19T11:31:01.708Z,85.20
2024-02-19T11:32:01.646Z,91.90
2024-02-19T11:33:01.728Z,46.30
2024-02-19T11:34:01.678Z,15.30
2024-02-19T11:35:01.705Z,14.40
2024-02-19T11:36:01.585Z,75.20
2024-02-19T11:37:01.618Z,15.20
2024-02-19T11:38:01.584Z,12.10
2024-02-19T11:39:01.566Z,10.20
2024-02-19T11:40:01.620Z,14.10
2024-02-19T11:41:01.530Z,13.40
2024-02-19T11:42:01.520Z,16.10
2024-02-19T11:43:01.551Z,12.90
2024-02-19T11:44:01.507Z,10.80
2024-02-19T11:45:01.534Z,13.50
2024-02-19T11:46:01.518Z,11.00
2024-02-19T11:47:01.500Z,390.40
2024-02-19T11:48:02.003Z,12.20
2024-02-19T11:49:01.682Z,13.80
2024-02-19T11:50:01.673Z,14.30
2024-02-19T11:51:01.469Z,605.30
2024-02-19T11:52:08.078Z,9.40
2024-02-19T11:53:02.520Z,14.90
2024-02-19T11:54:01.429Z,15.00
2024-02-19T11:55:01.516Z,14.40
2024-02-19T11:56:01.376Z,16.00
2024-02-19T11:57:01.356Z,18.20
2024-02-19T11:58:01.404Z,16.90
2024-02-19T11:59:35.591Z,14.10
2024-02-19T12:00:35.581Z,15.80
2024-02-19T12:01:35.679Z,13.70
2024-02-19T12:02:35.551Z,148.90
2024-02-19T12:03:35.543Z,16.10
2024-02-19T12:04:35.607Z,13.20
2024-02-19T12:05:35.561Z,19.10
2024-02-19T12:06:35.631Z,16.10
2024-02-19T12:07:35.691Z,96.30
2024-02-19T12:08:35.485Z,14.50
2024-02-19T12:09:35.503Z,15.30
2024-02-19T12:10:35.714Z,513.00
2024-02-19T12:11:35.528Z,218.60
2024-02-19T12:12:35.438Z,13.80
2024-02-19T12:13:35.494Z,131.00
2024-02-19T12:14:35.417Z,88.40
2024-02-19T12:15:35.409Z,560.00
2024-02-19T12:16:35.514Z,161.70
2024-02-19T12:17:35.404Z,471.00
2024-02-19T12:18:35.454Z,13.70
2024-02-19T12:19:35.619Z,12.50
2024-02-19T12:20:35.400Z,15.80
2024-02-19T12:21:35.348Z,13.70
2024-02-19T12:22:35.400Z,15.30
2024-02-19T12:23:35.314Z,295.40
2024-02-19T12:24:35.302Z,13.50
2024-02-19T12:25:35.358Z,244.00
2024-02-19T12:26:35.279Z,15.50
2024-02-19T12:27:35.385Z,14.30
2024-02-19T12:28:35.289Z,12.10
2024-02-19T12:29:35.245Z,14.30
2024-02-19T12:30:35.239Z,85.20
2024-02-19T12:31:35.279Z,16.30
2024-02-19T12:32:35.230Z,19.10
2024-02-19T12:33:35.346Z,259.20
2024-02-19T12:34:35.251Z,14.40
2024-02-19T12:35:36.503Z,218.40
2024-02-19T12:36:35.266Z,218.00
2024-02-19T12:37:35.278Z,18.00
2024-02-19T12:38:35.174Z,633.20
2024-02-19T12:39:35.150Z,18.00
2024-02-19T12:40:35.169Z,333.90
2024-02-19T12:41:35.300Z,18.90
2024-02-19T12:42:35.136Z,14.50
2024-02-19T12:43:35.131Z,78.10